createdAt,value
2023-03-10T00:01:24.574Z,97504.69
2023-03-10T00:03:51.177Z,97507.50
2023-03-10T00:06:19.673Z,97505.06
2023-03-10T00:08:46.505Z,97506.69
2023-03-10T00:11:13.238Z,97500.66
2023-03-10T00:13:41.096Z,97505.50
2023-03-10T00:16:08.087Z,97504.00
2023-03-10T00:18:36.022Z,97504.66
2023-03-10T00:21:02.569Z,97507.91
2023-03-10T00:23:29.105Z,97511.94
2023-03-10T00:25:56.018Z,97518.81
2023-03-10T00:28:23.801Z,97519.94
2023-03-10T00:30:58.433Z,97513.03
2023-03-10T00:33:25.964Z,97530.69
2023-03-10T00:36:01.110Z,97536.31
2023-03-10T00:38:27.598Z,97537.53
2023-03-10T00:41:20.414Z,97539.91
2023-03-10T00:43:47.028Z,97521.88
2023-03-10T00:46:13.906Z,97528.69
2023-03-10T00:48:41.947Z,97529.72
2023-03-10T00:51:10.404Z,97522.69
2023-03-10T00:53:38.019Z,97528.91
2023-03-10T00:56:11.316Z,97527.88
2023-03-10T00:58:37.804Z,97521.06
2023-03-10T01:01:05.002Z,97521.06
2023-03-10T01:03:31.560Z,97526.69
2023-03-10T01:05:58.198Z,97510.22
2023-03-10T01:08:24.803Z,97515.47
2023-03-10T01:10:51.274Z,97515.88
2023-03-10T01:13:19.746Z,97518.25
2023-03-10T01:15:48.648Z,97518.28
2023-03-10T01:18:16.935Z,97519.22
2023-03-10T01:20:43.872Z,97521.31
2023-03-10T01:23:22.044Z,97528.22
2023-03-10T01:25:48.931Z,97533.63
2023-03-10T01:28:15.937Z,97533.50
2023-03-10T01:30:42.817Z,97542.06
2023-03-10T01:33:09.991Z,97535.31
2023-03-10T01:35:38.256Z,97526.03
2023-03-10T01:38:05.159Z,97532.91
2023-03-10T01:40:31.910Z,97532.81
2023-03-10T01:43:17.265Z,97533.63
2023-03-10T01:45:46.775Z,97530.94
2023-03-10T01:48:14.088Z,97533.19
2023-03-10T01:50:41.887Z,97527.84
2023-03-10T01:53:08.718Z,97532.09
2023-03-10T01:55:38.549Z,97522.69
2023-03-10T01:58:05.907Z,97517.47
2023-03-10T02:00:33.882Z,97537.81
2023-03-10T02:03:00.330Z,97545.41
2023-03-10T02:05:28.729Z,97541.84
2023-03-10T02:07:55.894Z,97538.41
2023-03-10T02:10:22.373Z,97539.81
2023-03-10T02:12:48.815Z,97533.19
2023-03-10T02:15:16.750Z,97533.47
2023-03-10T02:17:43.406Z,97535.56
2023-03-10T02:20:14.459Z,97528.16
2023-03-10T02:22:41.097Z,97521.06
2023-03-10T02:25:08.796Z,97528.28
2023-03-10T02:27:38.464Z,97532.41
2023-03-10T02:30:07.940Z,97532.31
2023-03-10T02:32:36.738Z,97529.34
2023-03-10T02:35:03.824Z,97542.84
2023-03-10T02:37:32.151Z,97542.47
2023-03-10T02:39:58.945Z,97539.72
2023-03-10T02:42:26.906Z,97535.28
2023-03-10T02:44:54.106Z,97543.84
2023-03-10T02:47:20.696Z,97545.56
2023-03-10T02:49:47.159Z,97557.47
2023-03-10T02:52:27.160Z,97561.66
2023-03-10T02:54:53.613Z,97560.91
2023-03-10T02:57:20.301Z,97561.66
2023-03-10T02:59:46.736Z,97563.25
2023-03-10T03:02:13.246Z,97552.72
2023-03-10T03:04:39.729Z,97547.75
2023-03-10T03:07:06.170Z,97547.38
2023-03-10T03:09:34.146Z,97543.56
2023-03-10T03:12:01.391Z,97546.63
2023-03-10T03:14:27.877Z,97550.88
2023-03-10T03:16:55.823Z,97551.00
2023-03-10T03:19:22.305Z,97557.31
2023-03-10T03:21:51.265Z,97539.00
2023-03-10T03:24:22.041Z,97539.19
2023-03-10T03:26:48.603Z,97534.00
2023-03-10T03:29:15.323Z,97541.78
2023-03-10T03:31:41.957Z,97548.03
2023-03-10T03:34:08.456Z,97544.38
2023-03-10T03:36:35.019Z,97540.41
2023-03-10T03:39:02.833Z,97539.56
2023-03-10T03:41:29.305Z,97533.09
2023-03-10T03:43:55.780Z,97534.53
2023-03-10T03:46:22.255Z,97539.97
2023-03-10T03:48:48.870Z,97542.22
2023-03-10T03:51:15.353Z,97544.97
2023-03-10T03:53:42.106Z,97549.13
2023-03-10T03:56:09.911Z,97544.34
2023-03-10T03:58:36.342Z,97550.66
2023-03-10T04:01:02.808Z,97554.84
2023-03-10T04:03:29.402Z,97560.25
2023-03-10T04:05:55.901Z,97558.59
2023-03-10T04:08:22.335Z,97549.38
2023-03-10T04:10:52.193Z,97552.75
2023-03-10T04:13:18.708Z,97557.59
2023-03-10T04:15:45.237Z,97553.75
2023-03-10T04:18:12.134Z,97559.41
2023-03-10T04:20:38.797Z,97560.09
2023-03-10T04:23:05.234Z,97574.38
2023-03-10T04:25:33.497Z,97574.19
2023-03-10T04:27:59.960Z,97579.75
2023-03-10T04:30:30.779Z,97577.50
2023-03-10T04:33:00.964Z,97577.41
2023-03-10T04:35:27.744Z,97581.56
2023-03-10T04:37:54.214Z,97576.53
2023-03-10T04:40:20.796Z,97575.25
2023-03-10T04:42:47.388Z,97572.38
2023-03-10T04:45:13.957Z,97574.53
2023-03-10T04:47:40.563Z,97574.75
2023-03-10T04:50:07.269Z,97580.34
2023-03-10T04:52:33.742Z,97589.28
2023-03-10T04:55:00.220Z,97592.94
2023-03-10T04:57:26.954Z,97600.34
2023-03-10T04:59:53.521Z,97590.63
2023-03-10T05:02:20.520Z,97590.06
2023-03-10T05:04:47.150Z,97593.28
2023-03-10T05:07:14.900Z,97588.50
2023-03-10T05:09:41.369Z,97584.09
2023-03-10T05:12:09.979Z,97574.50
2023-03-10T05:14:37.126Z,97566.22
2023-03-10T05:17:04.027Z,97572.81
2023-03-10T05:19:30.503Z,97586.28
2023-03-10T05:21:57.033Z,97595.69
2023-03-10T05:24:23.495Z,97611.41
2023-03-10T05:26:51.117Z,97616.00
2023-03-10T05:29:17.620Z,97620.91
2023-03-10T05:31:45.487Z,97620.69
2023-03-10T05:34:13.834Z,97614.59
2023-03-10T05:36:40.812Z,97602.34
2023-03-10T05:39:09.004Z,97589.63
2023-03-10T05:41:36.377Z,97598.03
2023-03-10T05:44:03.180Z,97598.91
2023-03-10T05:46:29.878Z,97600.88
2023-03-10T05:48:57.048Z,97607.59
2023-03-10T05:51:24.679Z,97604.22
2023-03-10T05:53:52.234Z,97604.81
2023-03-10T05:56:19.481Z,97610.38
2023-03-10T05:58:49.496Z,97615.38
2023-03-10T06:01:16.010Z,97617.59
2023-03-10T06:03:42.758Z,97616.59
2023-03-10T06:06:09.342Z,97624.63
2023-03-10T06:08:35.944Z,97632.31
2023-03-10T06:11:02.580Z,97623.53
2023-03-10T06:13:29.028Z,97628.34
2023-03-10T06:15:57.012Z,97612.75
2023-03-10T06:18:23.997Z,97602.63
2023-03-10T06:20:50.783Z,97601.69
2023-03-10T06:23:17.378Z,97596.06
2023-03-10T06:25:45.302Z,97606.38
2023-03-10T06:28:12.879Z,97607.38
2023-03-10T06:30:39.367Z,97606.94
2023-03-10T06:33:05.935Z,97605.47
2023-03-10T06:35:32.443Z,97607.13
2023-03-10T06:37:58.965Z,97606.03
2023-03-10T06:40:25.459Z,97609.53
2023-03-10T06:42:51.945Z,97602.69
2023-03-10T06:45:18.459Z,97595.88
2023-03-10T06:47:44.953Z,97602.53
2023-03-10T06:50:11.973Z,97622.91
2023-03-10T06:52:38.440Z,97631.22
2023-03-10T06:55:05.174Z,97623.34
2023-03-10T06:57:31.696Z,97590.88
2023-03-10T06:59:58.183Z,97579.97
2023-03-10T07:02:24.662Z,97582.53
2023-03-10T07:04:51.236Z,97586.94
2023-03-10T07:07:17.814Z,97588.81
2023-03-10T07:09:46.141Z,97578.25
2023-03-10T07:12:14.209Z,97584.59
2023-03-10T07:14:40.654Z,97588.88
2023-03-10T07:17:07.767Z,97585.25
2023-03-10T07:19:34.313Z,97579.25
2023-03-10T07:22:00.759Z,97568.50
2023-03-10T07:24:27.235Z,97570.78
2023-03-10T07:26:54.470Z,97577.78
2023-03-10T07:29:22.218Z,97591.25
2023-03-10T07:31:48.652Z,97585.63
2023-03-10T07:34:15.143Z,97582.78
2023-03-10T07:36:41.644Z,97577.91
2023-03-10T07:39:08.241Z,97579.50
2023-03-10T07:41:34.830Z,97582.66
2023-03-10T07:44:01.305Z,97577.03
2023-03-10T07:46:27.903Z,97580.59
2023-03-10T07:48:55.654Z,97573.94
2023-03-10T07:51:22.311Z,97576.06
2023-03-10T07:53:48.798Z,97572.31
2023-03-10T07:56:15.464Z,97567.00
2023-03-10T07:58:43.590Z,97563.94
2023-03-10T08:01:15.109Z,97562.84
2023-03-10T08:03:41.759Z,97564.09
2023-03-10T08:06:08.262Z,97560.91
2023-03-10T08:08:34.783Z,97554.00
2023-03-10T08:11:05.200Z,97543.75
2023-03-10T08:13:32.078Z,97546.69
2023-03-10T08:16:02.104Z,97530.28
2023-03-10T08:18:29.584Z,97520.34
2023-03-10T08:20:56.810Z,97528.00
2023-03-10T08:23:24.321Z,97529.59
2023-03-10T08:25:51.284Z,97533.25
2023-03-10T08:28:18.412Z,97545.56
2023-03-10T08:31:02.579Z,97533.41
2023-03-10T08:33:32.082Z,97523.41
2023-03-10T08:36:09.578Z,97523.78
2023-03-10T08:38:38.749Z,97529.13
2023-03-10T08:41:14.423Z,97526.44
2023-03-10T08:43:40.887Z,97532.06
2023-03-10T08:46:08.770Z,97533.41
2023-03-10T08:48:35.567Z,97529.25
2023-03-10T08:51:02.080Z,97531.66
2023-03-10T08:53:28.671Z,97535.19
2023-03-10T08:55:55.213Z,97539.66
2023-03-10T08:58:23.029Z,97546.84
2023-03-10T09:00:49.505Z,97545.44
2023-03-10T09:03:16.553Z,97533.06
2023-03-10T09:05:43.127Z,97541.56
2023-03-10T09:08:10.014Z,97550.22
2023-03-10T09:10:37.067Z,97545.19
2023-03-10T09:13:13.396Z,97551.88
2023-03-10T09:15:41.581Z,97553.31
2023-03-10T09:18:08.744Z,97555.31
2023-03-10T09:20:35.885Z,97555.38
2023-03-10T09:23:02.837Z,97549.63
2023-03-10T09:25:30.741Z,97554.91
2023-03-10T09:27:57.589Z,97560.78
2023-03-10T09:30:24.984Z,97556.38
2023-03-10T09:32:51.983Z,97564.59
2023-03-10T09:35:19.130Z,97566.88
2023-03-10T09:37:45.600Z,97564.59
2023-03-10T09:40:18.882Z,97562.44
2023-03-10T09:42:47.009Z,97574.50
2023-03-10T09:45:33.630Z,97574.38
2023-03-10T09:48:13.466Z,97572.63
2023-03-10T09:50:56.741Z,97580.06
2023-03-10T09:53:38.431Z,97578.47
2023-03-10T09:56:12.160Z,97589.19
2023-03-10T09:58:41.217Z,97588.28
2023-03-10T10:01:15.759Z,97586.25
2023-03-10T10:03:53.380Z,97591.34
2023-03-10T10:06:28.985Z,97592.16
2023-03-10T10:09:07.452Z,97595.34
2023-03-10T10:11:37.104Z,97590.31
2023-03-10T10:14:31.448Z,97591.84
2023-03-10T10:17:01.312Z,97595.09
2023-03-10T10:19:28.464Z,97593.00
2023-03-10T10:21:57.993Z,97606.25
2023-03-10T10:24:26.325Z,97589.41
2023-03-10T10:26:52.932Z,97593.19
2023-03-10T10:29:23.869Z,97602.31
2023-03-10T10:32:06.821Z,97602.91
2023-03-10T10:34:33.749Z,97603.44
2023-03-10T10:37:00.572Z,97608.50
2023-03-10T10:39:34.503Z,97609.41
2023-03-10T10:42:12.973Z,97608.19
2023-03-10T10:44:42.969Z,97612.50
2023-03-10T10:47:29.208Z,97631.38
2023-03-10T10:50:08.476Z,97628.75
2023-03-10T10:52:35.121Z,97634.34
2023-03-10T10:55:02.460Z,97632.47
2023-03-10T10:57:33.438Z,97633.81
2023-03-10T11:00:13.510Z,97635.63
2023-03-10T11:02:40.027Z,97642.03
2023-03-10T11:05:15.361Z,97636.75
2023-03-10T11:07:42.456Z,97636.78
2023-03-10T11:10:13.330Z,97630.13
2023-03-10T11:12:45.880Z,97632.50
2023-03-10T11:15:12.425Z,97642.31
2023-03-10T11:17:57.643Z,97641.53
2023-03-10T11:20:24.345Z,97643.41
2023-03-10T11:22:53.811Z,97653.50
2023-03-10T11:25:27.020Z,97652.13
2023-03-10T11:28:12.541Z,97650.03
2023-03-10T11:30:43.232Z,97639.69
2023-03-10T11:33:18.799Z,97647.41
2023-03-10T11:35:48.793Z,97649.53
2023-03-10T11:38:32.761Z,97652.44
2023-03-10T11:41:02.760Z,97650.56
2023-03-10T11:43:47.760Z,97649.25
2023-03-10T11:46:23.393Z,97657.22
2023-03-10T11:48:55.153Z,97659.63
2023-03-10T11:51:41.039Z,97655.38
2023-03-10T11:54:20.427Z,97652.44
2023-03-10T11:56:48.609Z,97650.59
2023-03-10T11:59:15.318Z,97653.75
2023-03-10T12:01:53.780Z,97654.28
2023-03-10T12:04:29.169Z,97673.09
2023-03-10T12:07:10.736Z,97659.56
2023-03-10T12:09:37.184Z,97654.81
2023-03-10T12:12:05.094Z,97660.13
2023-03-10T12:14:32.369Z,97669.16
2023-03-10T12:17:01.043Z,97667.00
2023-03-10T12:19:27.494Z,97663.84
2023-03-10T12:22:12.725Z,97666.25
2023-03-10T12:24:45.058Z,97671.84
2023-03-10T12:27:11.594Z,97665.19
2023-03-10T12:29:39.253Z,97663.06
2023-03-10T12:32:23.150Z,97671.28
2023-03-10T12:35:09.533Z,97668.34
2023-03-10T12:37:36.037Z,97676.59
2023-03-10T12:40:02.517Z,97672.34
2023-03-10T12:42:35.379Z,97679.25
2023-03-10T12:45:15.457Z,97678.97
2023-03-10T12:47:48.767Z,97680.31
2023-03-10T12:50:19.566Z,97685.38
2023-03-10T12:52:53.149Z,97686.19
2023-03-10T12:55:19.694Z,97688.25
2023-03-10T12:57:48.910Z,97688.28
2023-03-10T13:00:34.237Z,97692.53
2023-03-10T13:03:05.143Z,97694.66
2023-03-10T13:05:33.876Z,97699.97
2023-03-10T13:08:03.023Z,97685.34
2023-03-10T13:10:31.683Z,97682.94
2023-03-10T13:13:02.226Z,97688.25
2023-03-10T13:15:29.844Z,97691.47
2023-03-10T13:18:16.543Z,97687.72
2023-03-10T13:20:43.051Z,97691.41
2023-03-10T13:23:27.713Z,97693.28
2023-03-10T13:25:59.940Z,97683.44
2023-03-10T13:28:27.847Z,97690.63
2023-03-10T13:31:17.103Z,97700.22
2023-03-10T13:33:52.667Z,97696.22
2023-03-10T13:36:41.701Z,97687.66
2023-03-10T13:39:15.972Z,97691.94
2023-03-10T13:41:47.809Z,97701.53
2023-03-10T13:44:18.599Z,97696.94
2023-03-10T13:46:53.205Z,97702.31
2023-03-10T13:49:22.136Z,97696.47
2023-03-10T13:51:54.026Z,97693.50
2023-03-10T13:54:22.159Z,97693.22
2023-03-10T13:56:50.388Z,97688.19
2023-03-10T13:59:19.946Z,97684.34
2023-03-10T14:01:48.265Z,97689.44
2023-03-10T14:04:17.347Z,97677.53
2023-03-10T14:06:43.843Z,97676.94
2023-03-10T14:09:17.937Z,97674.00
2023-03-10T14:11:46.881Z,97673.53
2023-03-10T14:14:15.625Z,97672.16
2023-03-10T14:16:51.063Z,97667.03
2023-03-10T14:19:38.084Z,97675.16
2023-03-10T14:22:24.788Z,97677.28
2023-03-10T14:24:51.686Z,97675.34
2023-03-10T14:27:18.796Z,97668.41
2023-03-10T14:29:53.195Z,97672.72
2023-03-10T14:32:20.098Z,97673.22
2023-03-10T14:34:47.401Z,97677.13
2023-03-10T14:37:15.331Z,97678.03
2023-03-10T14:39:41.856Z,97669.28
2023-03-10T14:42:19.030Z,97677.41
2023-03-10T14:44:45.765Z,97677.94
2023-03-10T14:47:12.374Z,97673.13
2023-03-10T14:49:39.584Z,97682.88
2023-03-10T14:52:10.741Z,97672.47
2023-03-10T14:54:37.187Z,97680.03
2023-03-10T14:57:04.060Z,97673.66
2023-03-10T14:59:30.566Z,97671.97
2023-03-10T15:01:57.653Z,97665.59
2023-03-10T15:04:24.373Z,97675.47
2023-03-10T15:06:50.863Z,97676.16
2023-03-10T15:09:17.442Z,97670.84
2023-03-10T15:11:45.397Z,97670.38
2023-03-10T15:14:18.916Z,97672.28
2023-03-10T15:16:45.715Z,97670.19
2023-03-10T15:19:18.242Z,97659.38
2023-03-10T15:21:44.785Z,97657.78
2023-03-10T15:24:11.265Z,97659.06
2023-03-10T15:26:38.173Z,97658.13
2023-03-10T15:29:04.689Z,97656.94
2023-03-10T15:31:31.236Z,97649.69
2023-03-10T15:33:57.875Z,97652.41
2023-03-10T15:36:25.553Z,97661.22
2023-03-10T15:38:52.972Z,97664.00
2023-03-10T15:41:19.457Z,97658.84
2023-03-10T15:43:47.274Z,97659.13
2023-03-10T15:46:13.872Z,97660.28
2023-03-10T15:48:40.345Z,97664.56
2023-03-10T15:51:10.603Z,97658.41
2023-03-10T15:53:37.343Z,97659.28
2023-03-10T15:56:07.671Z,97663.31
2023-03-10T15:58:34.970Z,97667.00
2023-03-10T16:01:06.254Z,97671.84
2023-03-10T16:03:34.197Z,97659.38
2023-03-10T16:06:00.676Z,97662.03
2023-03-10T16:08:27.163Z,97661.97
2023-03-10T16:10:54.610Z,97669.50
2023-03-10T16:13:23.154Z,97670.91
2023-03-10T16:15:50.905Z,97674.31
2023-03-10T16:18:17.445Z,97677.53
2023-03-10T16:20:43.918Z,97678.72
2023-03-10T16:23:10.482Z,97679.81
2023-03-10T16:25:37.967Z,97671.28
2023-03-10T16:28:04.469Z,97671.81
2023-03-10T16:30:32.221Z,97667.56
2023-03-10T16:33:02.105Z,97663.84
2023-03-10T16:35:28.824Z,97669.16
2023-03-10T16:37:56.623Z,97664.63
2023-03-10T16:40:23.130Z,97666.50
2023-03-10T16:42:49.970Z,97674.69
2023-03-10T16:45:16.555Z,97666.94
2023-03-10T16:47:44.078Z,97660.03
2023-03-10T16:50:12.722Z,97661.88
2023-03-10T16:52:39.936Z,97669.75
2023-03-10T16:55:08.844Z,97674.69
2023-03-10T16:57:36.091Z,97683.06
2023-03-10T17:00:02.624Z,97669.97
2023-03-10T17:02:29.130Z,97667.66
2023-03-10T17:04:55.571Z,97666.69
2023-03-10T17:07:23.301Z,97662.06
2023-03-10T17:09:49.808Z,97659.16
2023-03-10T17:12:16.358Z,97655.16
2023-03-10T17:14:44.027Z,97654.72
2023-03-10T17:17:10.482Z,97654.72
2023-03-10T17:19:36.963Z,97656.72
2023-03-10T17:22:04.780Z,97659.75
2023-03-10T17:24:31.434Z,97653.34
2023-03-10T17:26:58.483Z,97667.41
2023-03-10T17:29:24.947Z,97667.84
2023-03-10T17:31:51.786Z,97667.09
2023-03-10T17:34:19.184Z,97669.78
2023-03-10T17:36:46.794Z,97661.53
2023-03-10T17:39:19.769Z,97655.47
2023-03-10T17:41:46.906Z,97664.81
2023-03-10T17:44:13.724Z,97661.94
2023-03-10T17:46:44.657Z,97661.06
2023-03-10T17:49:12.422Z,97672.50
2023-03-10T17:51:40.748Z,97676.81
2023-03-10T17:54:07.441Z,97671.19
2023-03-10T17:56:33.992Z,97663.66
2023-03-10T17:59:00.582Z,97668.94
2023-03-10T18:01:28.675Z,97659.69
2023-03-10T18:03:56.316Z,97664.44
2023-03-10T18:06:24.717Z,97657.75
2023-03-10T18:08:51.923Z,97660.13
2023-03-10T18:11:20.530Z,97661.19
2023-03-10T18:13:47.361Z,97652.59
2023-03-10T18:16:23.537Z,97649.09
2023-03-10T18:18:50.124Z,97649.72
2023-03-10T18:21:18.182Z,97658.09
2023-03-10T18:23:45.650Z,97650.63
2023-03-10T18:26:14.135Z,97654.28
2023-03-10T18:28:41.159Z,97654.28
2023-03-10T18:31:08.735Z,97648.28
2023-03-10T18:33:37.259Z,97648.03
2023-03-10T18:36:05.398Z,97641.28
2023-03-10T18:38:33.053Z,97649.31
2023-03-10T18:41:02.085Z,97652.06
2023-03-10T18:43:35.205Z,97649.94
2023-03-10T18:46:03.944Z,97643.00
2023-03-10T18:48:30.752Z,97646.25
2023-03-10T18:50:58.576Z,97647.97
2023-03-10T18:53:27.540Z,97642.81
2023-03-10T18:55:54.649Z,97648.22
2023-03-10T18:58:21.881Z,97646.38
2023-03-10T19:00:48.527Z,97644.44
2023-03-10T19:03:15.179Z,97638.84
2023-03-10T19:05:43.157Z,97641.66
2023-03-10T19:08:11.532Z,97636.09
2023-03-10T19:10:39.445Z,97630.59
2023-03-10T19:13:06.112Z,97629.19
2023-03-10T19:15:32.586Z,97628.94
2023-03-10T19:17:59.069Z,97629.31
2023-03-10T19:20:26.762Z,97629.53
2023-03-10T19:22:53.250Z,97619.97
2023-03-10T19:25:20.672Z,97626.88
2023-03-10T19:27:48.990Z,97631.34
2023-03-10T19:30:17.270Z,97619.97
2023-03-10T19:32:44.734Z,97623.03
2023-03-10T19:35:12.845Z,97632.31
2023-03-10T19:37:43.118Z,97625.88
2023-03-10T19:40:14.225Z,97623.16
2023-03-10T19:42:44.299Z,97621.94
2023-03-10T19:45:11.959Z,97623.91
2023-03-10T19:47:39.950Z,97622.63
2023-03-10T19:50:07.983Z,97616.94
2023-03-10T19:52:34.496Z,97615.97
2023-03-10T19:55:02.297Z,97617.63
2023-03-10T19:57:28.790Z,97609.31
2023-03-10T19:59:55.316Z,97612.53
2023-03-10T20:02:21.954Z,97614.13
2023-03-10T20:04:50.448Z,97620.63
2023-03-10T20:07:17.841Z,97614.63
2023-03-10T20:09:45.593Z,97617.69
2023-03-10T20:12:13.474Z,97621.69
2023-03-10T20:14:39.905Z,97619.19
2023-03-10T20:17:07.561Z,97628.81
2023-03-10T20:19:34.047Z,97628.34
2023-03-10T20:22:01.935Z,97626.97
2023-03-10T20:24:29.836Z,97630.28
2023-03-10T20:26:58.519Z,97634.53
2023-03-10T20:29:25.398Z,97632.94
2023-03-10T20:31:52.103Z,97634.03
2023-03-10T20:34:21.754Z,97636.59
2023-03-10T20:36:49.835Z,97641.59
2023-03-10T20:39:16.420Z,97644.13
2023-03-10T20:41:45.033Z,97651.44
2023-03-10T20:44:14.231Z,97653.59
2023-03-10T20:46:41.865Z,97649.72
2023-03-10T20:49:08.408Z,97656.47
2023-03-10T20:51:35.030Z,97651.31
2023-03-10T20:54:01.651Z,97650.50
2023-03-10T20:56:30.405Z,97656.69
2023-03-10T20:58:59.881Z,97662.41
2023-03-10T21:01:26.745Z,97655.19
2023-03-10T21:03:57.885Z,97653.22
2023-03-10T21:06:26.475Z,97662.94
2023-03-10T21:08:53.144Z,97663.75
2023-03-10T21:11:21.033Z,97660.53
2023-03-10T21:13:47.489Z,97657.09
2023-03-10T21:16:15.525Z,97661.91
2023-03-10T21:18:42.087Z,97659.97
2023-03-10T21:21:09.789Z,97665.22
2023-03-10T21:23:37.210Z,97664.19
2023-03-10T21:26:09.962Z,97674.16
2023-03-10T21:28:37.087Z,97662.59
2023-03-10T21:31:04.528Z,97668.31
2023-03-10T21:33:31.091Z,97664.31
2023-03-10T21:35:57.592Z,97662.13
2023-03-10T21:38:24.074Z,97659.72
2023-03-10T21:40:50.537Z,97661.56
2023-03-10T21:43:17.234Z,97661.13
2023-03-10T21:45:43.695Z,97657.09
2023-03-10T21:48:11.631Z,97649.66
2023-03-10T21:50:38.416Z,97651.84
2023-03-10T21:53:06.766Z,97656.00
2023-03-10T21:55:34.556Z,97655.53
2023-03-10T21:58:02.500Z,97653.72
2023-03-10T22:00:30.046Z,97658.63
2023-03-10T22:02:56.545Z,97657.25
2023-03-10T22:05:23.019Z,97651.09
2023-03-10T22:07:49.747Z,97653.69
2023-03-10T22:10:18.032Z,97651.97
2023-03-10T22:12:46.112Z,97643.13
2023-03-10T22:15:15.157Z,97646.78
2023-03-10T22:17:41.594Z,97634.91
2023-03-10T22:20:08.709Z,97636.59
2023-03-10T22:22:35.173Z,97622.97
2023-03-10T22:25:02.193Z,97631.53
2023-03-10T22:27:29.065Z,97641.03
2023-03-10T22:29:55.505Z,97634.97
2023-03-10T22:32:22.042Z,97630.81
2023-03-10T22:34:48.566Z,97629.13
2023-03-10T22:37:15.085Z,97619.16
2023-03-10T22:39:41.531Z,97621.56
2023-03-10T22:42:08.066Z,97621.75
2023-03-10T22:44:36.246Z,97624.41
2023-03-10T22:47:02.835Z,97625.41
2023-03-10T22:49:29.651Z,97626.75
2023-03-10T22:51:56.195Z,97629.69
2023-03-10T22:54:22.759Z,97630.50
2023-03-10T22:56:49.209Z,97616.75
2023-03-10T22:59:15.702Z,97613.31
2023-03-10T23:01:42.180Z,97622.72
2023-03-10T23:04:08.692Z,97627.66
2023-03-10T23:06:35.814Z,97622.34
2023-03-10T23:09:06.099Z,97615.66
2023-03-10T23:11:32.852Z,97600.91
2023-03-10T23:14:04.664Z,97582.13
2023-03-10T23:16:37.488Z,97610.75
2023-03-10T23:19:07.202Z,97608.28
2023-03-10T23:21:36.596Z,97614.16
2023-03-10T23:24:04.450Z,97618.28
2023-03-10T23:26:32.771Z,97609.13
2023-03-10T23:28:59.624Z,97613.31
2023-03-10T23:31:26.173Z,97614.91
2023-03-10T23:33:52.692Z,97615.59
2023-03-10T23:36:19.193Z,97624.44
2023-03-10T23:38:45.810Z,97612.53
2023-03-10T23:41:13.794Z,97610.88
2023-03-10T23:43:40.304Z,97600.22
2023-03-10T23:46:07.703Z,97606.94
2023-03-10T23:48:36.385Z,97608.72
2023-03-10T23:51:03.113Z,97614.13
2023-03-10T23:53:31.118Z,97602.78
2023-03-10T23:55:58.946Z,97601.00
2023-03-10T23:58:28.128Z,97602.59
